createdAt,value
2018-01-21T00:00:19.712Z,53.00
2018-01-21T00:01:19.718Z,43.90
2018-01-21T00:02:19.723Z,40.80
2018-01-21T00:03:19.728Z,50.50
2018-01-21T00:04:19.740Z,53.70
2018-01-21T00:05:19.739Z,45.70
2018-01-21T00:06:19.739Z,56.10
2018-01-21T00:07:19.752Z,52.90
2018-01-21T00:08:19.756Z,44.40
2018-01-21T00:09:19.773Z,59.90
2018-01-21T00:10:19.768Z,59.00
2018-01-21T00:11:19.768Z,42.90
2018-01-21T00:12:19.775Z,52.50
2018-01-21T00:13:19.778Z,52.30
2018-01-21T00:14:19.789Z,48.00
2018-01-21T00:15:19.784Z,45.50
2018-01-21T00:16:19.826Z,43.80
2018-01-21T00:17:19.808Z,39.20
2018-01-21T00:18:19.820Z,42.00
2018-01-21T00:19:19.812Z,49.90
2018-01-21T00:20:19.819Z,41.40
2018-01-21T00:21:19.824Z,45.70
2018-01-21T00:22:19.829Z,42.30
2018-01-21T00:23:19.836Z,36.80
2018-01-21T00:24:19.831Z,43.50
2018-01-21T00:25:19.849Z,42.90
2018-01-21T00:26:19.853Z,41.30
2018-01-21T00:27:19.858Z,42.50
2018-01-21T00:28:19.869Z,59.30
2018-01-21T00:29:19.869Z,67.60
2018-01-21T00:30:19.877Z,61.00
2018-01-21T00:31:19.877Z,52.40
2018-01-21T00:32:19.889Z,52.70
2018-01-21T00:33:19.882Z,58.70
2018-01-21T00:34:19.895Z,78.10
2018-01-21T00:35:19.897Z,58.50
2018-01-21T00:36:19.928Z,52.00
2018-01-21T00:37:19.922Z,48.90
2018-01-21T00:38:19.924Z,48.30
2018-01-21T00:39:19.933Z,50.30
2018-01-21T00:40:19.931Z,50.70
2018-01-21T00:41:19.943Z,57.30
2018-01-21T00:42:19.933Z,53.00
2018-01-21T00:43:19.928Z,57.30
2018-01-21T00:44:19.938Z,55.70
2018-01-21T00:45:19.970Z,51.30
2018-01-21T00:46:19.954Z,44.10
2018-01-21T00:47:19.952Z,93.50
2018-01-21T00:48:19.960Z,59.10
2018-01-21T00:49:19.967Z,52.00
2018-01-21T00:50:19.973Z,47.40
2018-01-21T00:51:19.976Z,43.70
2018-01-21T00:52:19.980Z,42.10
2018-01-21T00:53:20.035Z,46.40
2018-01-21T00:54:20.027Z,44.80
2018-01-21T00:55:19.997Z,43.80
2018-01-21T00:56:19.997Z,39.90
2018-01-21T00:57:20.012Z,49.10
2018-01-21T00:58:20.010Z,49.10
2018-01-21T00:59:20.014Z,45.80
2018-01-21T01:00:20.107Z,48.10
2018-01-21T01:01:20.029Z,54.60
2018-01-21T01:02:20.044Z,46.80
2018-01-21T01:03:20.049Z,49.60
2018-01-21T01:04:20.060Z,61.00
2018-01-21T01:05:20.057Z,54.60
2018-01-21T01:06:20.060Z,56.60
2018-01-21T01:07:20.071Z,48.80
2018-01-21T01:08:20.082Z,51.20
2018-01-21T01:09:20.080Z,47.10
2018-01-21T01:10:20.089Z,52.50
2018-01-21T01:11:20.099Z,45.40
2018-01-21T01:12:20.106Z,51.50
2018-01-21T01:13:20.109Z,50.80
2018-01-21T01:14:20.115Z,56.40
2018-01-21T01:15:20.100Z,57.40
2018-01-21T01:16:20.127Z,52.10
2018-01-21T01:17:20.119Z,54.00
2018-01-21T01:18:20.117Z,54.00
2018-01-21T01:19:20.132Z,52.00
2018-01-21T01:20:20.135Z,58.60
2018-01-21T01:21:20.134Z,58.80
2018-01-21T01:22:20.145Z,70.80
2018-01-21T01:23:20.149Z,71.90
2018-01-21T01:24:20.156Z,64.20
2018-01-21T01:25:20.164Z,78.20
2018-01-21T01:26:20.169Z,71.40
2018-01-21T01:27:20.174Z,73.40
2018-01-21T01:28:20.177Z,64.70
2018-01-21T01:29:20.188Z,73.90
2018-01-21T01:30:20.185Z,68.90
2018-01-21T01:31:20.195Z,71.20
2018-01-21T01:32:20.202Z,79.40
2018-01-21T01:33:20.204Z,70.10
2018-01-21T01:34:20.209Z,81.10
2018-01-21T01:35:20.214Z,88.70
2018-01-21T01:36:20.222Z,80.30
2018-01-21T01:37:20.227Z,74.40
2018-01-21T01:38:20.229Z,76.80
2018-01-21T01:39:20.236Z,79.20
2018-01-21T01:40:20.247Z,78.40
2018-01-21T01:41:20.768Z,75.60
2018-01-21T01:42:20.251Z,77.20
2018-01-21T01:43:20.258Z,75.10
2018-01-21T01:44:20.255Z,78.00
2018-01-21T01:45:20.270Z,81.20
2018-01-21T01:46:20.281Z,82.50
2018-01-21T01:47:20.277Z,80.90
2018-01-21T01:48:20.312Z,79.80
2018-01-21T01:49:20.285Z,77.10
2018-01-21T01:50:20.283Z,80.90
2018-01-21T01:51:20.328Z,78.80
2018-01-21T01:52:20.300Z,76.80
2018-01-21T01:53:20.310Z,72.60
2018-01-21T01:54:20.316Z,81.70
2018-01-21T01:55:20.317Z,77.20
2018-01-21T01:56:20.323Z,80.30
2018-01-21T01:57:20.327Z,76.60
2018-01-21T01:58:20.340Z,79.50
2018-01-21T01:59:20.354Z,82.10
2018-01-21T02:00:20.354Z,78.40
2018-01-21T02:01:20.356Z,75.10
2018-01-21T02:02:20.362Z,70.60
2018-01-21T02:03:20.355Z,73.80
2018-01-21T02:04:20.368Z,65.80
2018-01-21T02:05:20.389Z,78.60
2018-01-21T02:06:20.383Z,72.60
2018-01-21T02:07:20.381Z,80.00
2018-01-21T02:08:20.391Z,75.10
2018-01-21T02:09:20.499Z,68.20
2018-01-21T02:10:20.390Z,71.20
2018-01-21T02:11:20.404Z,69.40
2018-01-21T02:12:20.409Z,71.50
2018-01-21T02:13:20.415Z,60.40
2018-01-21T02:14:20.415Z,61.70
2018-01-21T02:15:20.431Z,53.80
2018-01-21T02:16:20.430Z,60.80
2018-01-21T02:17:20.440Z,55.40
2018-01-21T02:18:20.442Z,49.60
2018-01-21T02:19:20.457Z,54.60
2018-01-21T02:20:20.453Z,52.20
2018-01-21T02:21:20.460Z,57.90
2018-01-21T02:22:20.462Z,53.50
2018-01-21T02:23:20.491Z,52.30
2018-01-21T02:24:20.487Z,49.50
2018-01-21T02:25:20.606Z,50.80
2018-01-21T02:26:20.492Z,53.20
2018-01-21T02:27:20.492Z,50.80
2018-01-21T02:28:20.514Z,45.10
2018-01-21T02:29:20.517Z,46.70
2018-01-21T02:30:20.524Z,51.90
2018-01-21T02:31:20.540Z,49.20
2018-01-21T02:32:20.587Z,43.00
2018-01-21T02:33:20.510Z,37.10
2018-01-21T02:34:20.537Z,39.70
2018-01-21T02:35:20.547Z,34.60
2018-01-21T02:36:20.530Z,36.70
2018-01-21T02:37:20.547Z,39.20
2018-01-21T02:38:20.535Z,34.50
2018-01-21T02:39:20.621Z,36.90
2018-01-21T02:40:20.584Z,36.30
2018-01-21T02:41:20.547Z,35.70
2018-01-21T02:42:20.576Z,38.60
2018-01-21T02:43:20.571Z,32.00
2018-01-21T02:44:20.570Z,33.80
2018-01-21T02:45:20.591Z,33.00
2018-01-21T02:46:20.589Z,35.30
2018-01-21T02:47:20.588Z,34.50
2018-01-21T02:48:20.599Z,34.70
2018-01-21T02:49:20.598Z,37.80
2018-01-21T02:50:20.612Z,33.80
2018-01-21T02:51:20.842Z,38.20
2018-01-21T02:52:20.647Z,36.90
2018-01-21T02:53:20.618Z,36.50
2018-01-21T02:54:20.628Z,39.10
2018-01-21T02:55:21.144Z,36.70
2018-01-21T02:56:20.640Z,38.60
2018-01-21T02:57:21.562Z,34.50
2018-01-21T02:58:20.653Z,34.00
2018-01-21T02:59:20.696Z,33.50
2018-01-21T03:00:20.668Z,35.80
2018-01-21T03:01:20.656Z,37.90
2018-01-21T03:02:20.671Z,39.90
2018-01-21T03:03:20.672Z,43.50
2018-01-21T03:04:20.720Z,40.70
2018-01-21T03:05:20.677Z,41.30
2018-01-21T03:06:20.683Z,37.80
2018-01-21T03:07:20.696Z,35.80
2018-01-21T03:08:20.687Z,37.10
2018-01-21T03:09:20.703Z,41.50
2018-01-21T03:10:20.704Z,38.40
2018-01-21T03:11:20.718Z,38.40
2018-01-21T03:12:20.733Z,35.60
2018-01-21T03:13:20.723Z,40.90
2018-01-21T03:14:20.753Z,37.80
2018-01-21T03:15:20.731Z,40.10
2018-01-21T03:16:20.735Z,38.90
2018-01-21T03:17:20.739Z,38.20
2018-01-21T03:18:20.747Z,37.90
2018-01-21T03:19:20.778Z,38.30
2018-01-21T03:20:20.764Z,37.40
2018-01-21T03:21:20.803Z,35.20
2018-01-21T03:22:20.774Z,38.70
2018-01-21T03:23:20.770Z,37.50
2018-01-21T03:24:20.770Z,37.70
2018-01-21T03:25:20.789Z,41.90
2018-01-21T03:26:20.786Z,37.90
2018-01-21T03:27:20.785Z,42.30
2018-01-21T03:28:20.805Z,38.30
2018-01-21T03:29:20.796Z,37.80
2018-01-21T03:30:20.804Z,41.50
2018-01-21T03:31:20.809Z,40.40
2018-01-21T03:32:20.820Z,40.10
2018-01-21T03:33:20.815Z,39.00
2018-01-21T03:34:20.815Z,38.60
2018-01-21T03:35:20.829Z,38.00
2018-01-21T03:36:20.921Z,40.70
2018-01-21T03:37:20.843Z,38.80
2018-01-21T03:38:20.853Z,44.50
2018-01-21T03:39:20.842Z,42.80
2018-01-21T03:40:20.848Z,41.50
2018-01-21T03:41:20.977Z,42.80
2018-01-21T03:42:20.860Z,42.90
2018-01-21T03:43:20.993Z,43.00
2018-01-21T03:44:20.881Z,40.50
2018-01-21T03:45:20.880Z,41.80
2018-01-21T03:46:20.895Z,38.50
2018-01-21T03:47:20.895Z,34.60
2018-01-21T03:48:20.879Z,35.20
2018-01-21T03:49:20.905Z,34.10
2018-01-21T03:50:20.927Z,30.80
2018-01-21T03:51:20.898Z,36.70
2018-01-21T03:52:20.912Z,33.10
2018-01-21T03:53:20.926Z,33.10
2018-01-21T03:54:20.964Z,30.10
2018-01-21T03:55:20.949Z,31.30
2018-01-21T03:56:20.974Z,28.70
2018-01-21T03:57:20.922Z,27.80
2018-01-21T03:58:20.982Z,30.50
2018-01-21T03:59:20.932Z,26.40
2018-01-21T04:00:20.938Z,27.30
2018-01-21T04:01:20.990Z,28.80
2018-01-21T04:02:20.995Z,28.00
2018-01-21T04:03:20.985Z,28.20
2018-01-21T04:04:20.958Z,28.70
2018-01-21T04:05:20.982Z,26.50
2018-01-21T04:06:20.995Z,30.20
2018-01-21T04:07:20.966Z,29.80
2018-01-21T04:08:20.974Z,28.40
2018-01-21T04:09:20.977Z,33.20
2018-01-21T04:10:20.984Z,30.00
2018-01-21T04:11:20.994Z,30.50
2018-01-21T04:12:20.998Z,27.80
2018-01-21T04:13:20.997Z,29.60
2018-01-21T04:14:21.006Z,34.80
2018-01-21T04:15:21.005Z,28.10
2018-01-21T04:16:21.013Z,29.50
2018-01-21T04:17:21.088Z,30.20
2018-01-21T04:18:21.027Z,27.10
2018-01-21T04:19:21.106Z,34.70
2018-01-21T04:20:21.025Z,29.50
2018-01-21T04:21:21.037Z,30.00
2018-01-21T04:22:21.035Z,32.00
2018-01-21T04:23:21.054Z,31.50
2018-01-21T04:24:21.062Z,31.60
2018-01-21T04:25:21.064Z,32.00
2018-01-21T04:26:21.052Z,30.20
2018-01-21T04:27:21.150Z,31.00
2018-01-21T04:28:21.066Z,27.90
2018-01-21T04:29:21.101Z,31.30
2018-01-21T04:30:21.083Z,85.40
2018-01-21T04:31:21.071Z,35.90
2018-01-21T04:32:21.113Z,33.20
2018-01-21T04:33:21.083Z,28.30
2018-01-21T04:34:21.125Z,32.80
2018-01-21T04:35:21.134Z,31.10
2018-01-21T04:36:21.097Z,31.40
2018-01-21T04:37:21.112Z,31.40
2018-01-21T04:38:21.112Z,28.50
2018-01-21T04:39:21.102Z,31.60
2018-01-21T04:40:21.112Z,30.00
2018-01-21T04:41:21.132Z,29.70
2018-01-21T04:42:21.121Z,27.80
2018-01-21T04:43:21.128Z,34.10
2018-01-21T04:44:21.138Z,28.70
2018-01-21T04:45:21.165Z,29.90
2018-01-21T04:46:21.129Z,28.70
2018-01-21T04:47:21.134Z,27.30
2018-01-21T04:48:21.159Z,30.00
2018-01-21T04:49:21.146Z,30.20
2018-01-21T04:50:21.154Z,30.70
2018-01-21T04:51:21.156Z,24.70
2018-01-21T04:52:21.158Z,29.90
2018-01-21T04:53:21.170Z,29.30
2018-01-21T04:54:21.170Z,32.60
2018-01-21T04:55:21.167Z,26.00
2018-01-21T04:56:21.182Z,28.90
2018-01-21T04:57:21.192Z,28.30
2018-01-21T04:58:21.192Z,27.70
2018-01-21T04:59:21.202Z,29.50
2018-01-21T05:00:21.202Z,29.30
2018-01-21T05:01:21.201Z,29.00
2018-01-21T05:02:21.211Z,30.10
2018-01-21T05:03:21.205Z,28.10
2018-01-21T05:04:21.214Z,30.80
2018-01-21T05:05:21.219Z,27.80
2018-01-21T05:06:21.217Z,30.60
2018-01-21T05:07:21.223Z,30.30
2018-01-21T05:08:21.310Z,28.80
2018-01-21T05:09:21.230Z,31.50
2018-01-21T05:10:21.225Z,29.60
2018-01-21T05:11:21.244Z,28.40
2018-01-21T05:12:21.246Z,29.60
2018-01-21T05:13:21.246Z,27.70
2018-01-21T05:14:21.251Z,27.70
2018-01-21T05:15:21.263Z,27.50
2018-01-21T05:16:21.257Z,28.50
2018-01-21T05:17:21.257Z,29.90
2018-01-21T05:18:21.264Z,25.80
2018-01-21T05:19:21.274Z,27.80
2018-01-21T05:20:21.287Z,28.50
2018-01-21T05:21:21.296Z,27.10
2018-01-21T05:22:21.284Z,27.20
2018-01-21T05:23:21.284Z,26.80
2018-01-21T05:24:21.300Z,28.50
2018-01-21T05:25:21.297Z,27.70
2018-01-21T05:26:21.316Z,25.70
2018-01-21T05:27:21.305Z,31.40
2018-01-21T05:28:21.301Z,29.70
2018-01-21T05:29:21.313Z,31.20
2018-01-21T05:30:21.310Z,32.30
2018-01-21T05:31:21.320Z,29.10
2018-01-21T05:32:21.331Z,34.00
2018-01-21T05:33:21.329Z,26.90
2018-01-21T05:34:21.329Z,35.70
2018-01-21T05:35:21.336Z,29.10
2018-01-21T05:36:21.329Z,29.00
2018-01-21T05:37:21.335Z,35.40
2018-01-21T05:38:21.346Z,34.90
2018-01-21T05:39:21.348Z,30.00
2018-01-21T05:40:21.358Z,34.70
2018-01-21T05:41:21.364Z,29.70
2018-01-21T05:42:21.364Z,35.70
2018-01-21T05:43:21.358Z,36.70
2018-01-21T05:44:21.368Z,33.20
2018-01-21T05:45:21.372Z,36.40
2018-01-21T05:46:21.371Z,33.90
2018-01-21T05:47:21.386Z,34.10
2018-01-21T05:48:21.393Z,34.40
2018-01-21T05:49:21.399Z,34.10
2018-01-21T05:50:21.390Z,33.40
2018-01-21T05:51:21.397Z,30.70
2018-01-21T05:52:21.408Z,33.40
2018-01-21T05:53:21.403Z,35.00
2018-01-21T05:54:21.411Z,36.80
2018-01-21T05:55:21.415Z,33.10
2018-01-21T05:56:21.419Z,34.90
2018-01-21T05:57:21.435Z,31.40
2018-01-21T05:58:21.437Z,34.00
2018-01-21T05:59:21.435Z,34.10
2018-01-21T06:00:21.438Z,31.30
2018-01-21T06:01:21.434Z,34.10
2018-01-21T06:02:21.477Z,30.70
2018-01-21T06:03:21.441Z,39.80
2018-01-21T06:04:21.448Z,35.60
2018-01-21T06:05:21.451Z,39.60
2018-01-21T06:06:21.452Z,36.60
2018-01-21T06:07:21.460Z,32.20
2018-01-21T06:08:21.475Z,31.40
2018-01-21T06:09:21.474Z,36.30
2018-01-21T06:10:21.471Z,35.40
2018-01-21T06:11:21.473Z,36.50
2018-01-21T06:12:22.280Z,33.50
2018-01-21T06:13:21.488Z,36.70
2018-01-21T06:14:21.494Z,40.20
2018-01-21T06:15:21.499Z,33.80
2018-01-21T06:16:21.505Z,33.00
2018-01-21T06:17:21.534Z,31.40
2018-01-21T06:18:21.518Z,30.80
2018-01-21T06:19:21.518Z,31.20
2018-01-21T06:20:21.514Z,31.10
2018-01-21T06:21:21.513Z,30.40
2018-01-21T06:22:21.518Z,29.10
2018-01-21T06:23:21.517Z,33.10
2018-01-21T06:24:21.523Z,29.30
2018-01-21T06:25:21.536Z,30.00
2018-01-21T06:26:21.533Z,27.00
2018-01-21T06:27:21.536Z,30.60
2018-01-21T06:28:21.540Z,26.50
2018-01-21T06:29:21.537Z,24.50
2018-01-21T06:30:21.558Z,29.40
2018-01-21T06:31:21.549Z,26.40
2018-01-21T06:32:21.595Z,27.80
2018-01-21T06:33:21.561Z,25.60
2018-01-21T06:34:21.571Z,27.60
2018-01-21T06:35:21.565Z,27.90
2018-01-21T06:36:21.569Z,23.90
2018-01-21T06:37:21.572Z,25.00
2018-01-21T06:38:21.576Z,24.80
2018-01-21T06:39:21.579Z,29.50
2018-01-21T06:40:21.586Z,27.00
2018-01-21T06:41:21.590Z,25.00
2018-01-21T06:42:21.594Z,25.30
2018-01-21T06:43:21.641Z,23.70
2018-01-21T06:44:21.597Z,28.60
2018-01-21T06:45:21.613Z,27.70
2018-01-21T06:46:21.613Z,24.30
2018-01-21T06:47:21.616Z,25.40
2018-01-21T06:48:21.627Z,23.80
2018-01-21T06:49:21.627Z,25.00
2018-01-21T06:50:21.643Z,21.70
2018-01-21T06:51:21.642Z,23.40
2018-01-21T06:52:21.639Z,24.90
2018-01-21T06:53:21.633Z,24.80
2018-01-21T06:54:21.640Z,24.90
2018-01-21T06:55:21.678Z,24.50
2018-01-21T06:56:21.658Z,24.10
2018-01-21T06:57:21.652Z,21.50
2018-01-21T06:58:21.658Z,23.60
2018-01-21T06:59:21.658Z,22.90
2018-01-21T07:00:21.670Z,20.90
2018-01-21T07:01:21.665Z,22.40
2018-01-21T07:02:21.671Z,23.60
2018-01-21T07:03:21.681Z,19.90
2018-01-21T07:04:21.683Z,19.00
2018-01-21T07:05:21.681Z,20.90
2018-01-21T07:06:21.690Z,21.90
2018-01-21T07:07:21.694Z,19.20
2018-01-21T07:08:21.710Z,19.90
2018-01-21T07:09:21.695Z,16.70
2018-01-21T07:10:21.704Z,24.00
2018-01-21T07:11:21.741Z,21.30
2018-01-21T07:12:21.713Z,17.70
2018-01-21T07:13:21.716Z,21.30
2018-01-21T07:14:21.713Z,19.90
2018-01-21T07:15:21.718Z,20.50
2018-01-21T07:16:21.726Z,18.90
2018-01-21T07:17:21.729Z,15.30
2018-01-21T07:18:21.731Z,16.30
2018-01-21T07:19:21.754Z,17.50
2018-01-21T07:20:21.742Z,19.50
2018-01-21T07:21:21.767Z,18.90
2018-01-21T07:22:21.757Z,20.30
2018-01-21T07:23:21.764Z,19.60
2018-01-21T07:24:21.769Z,19.30
2018-01-21T07:25:21.794Z,16.20
2018-01-21T07:26:21.772Z,17.30
2018-01-21T07:27:21.788Z,19.40
2018-01-21T07:28:21.797Z,19.40
2018-01-21T07:29:21.798Z,17.50
2018-01-21T07:30:21.783Z,18.70
2018-01-21T07:31:21.794Z,19.00
2018-01-21T07:32:21.795Z,18.60
2018-01-21T07:33:21.800Z,18.40
2018-01-21T07:34:21.923Z,17.00
2018-01-21T07:35:21.808Z,18.20
2018-01-21T07:36:21.812Z,18.90
2018-01-21T07:37:21.816Z,16.20
2018-01-21T07:38:21.825Z,17.40
2018-01-21T07:39:21.855Z,18.30
2018-01-21T07:40:21.821Z,17.70
2018-01-21T07:41:21.831Z,16.70
2018-01-21T07:42:21.838Z,16.70
2018-01-21T07:43:21.834Z,18.80
2018-01-21T07:44:21.840Z,19.90
2018-01-21T07:45:21.845Z,16.30
2018-01-21T07:46:21.849Z,18.50
2018-01-21T07:47:21.937Z,19.80
2018-01-21T07:48:21.854Z,16.40
2018-01-21T07:49:21.858Z,17.10
2018-01-21T07:50:21.868Z,21.10
2018-01-21T07:51:21.892Z,19.60
2018-01-21T07:52:21.876Z,20.30
2018-01-21T07:53:21.869Z,26.40
2018-01-21T07:54:21.877Z,25.50
2018-01-21T07:55:21.885Z,22.80
2018-01-21T07:56:21.905Z,16.20
2018-01-21T07:57:21.910Z,16.20
2018-01-21T07:58:21.901Z,19.80
2018-01-21T07:59:21.903Z,20.90
2018-01-21T08:00:21.909Z,20.10
2018-01-21T08:01:21.920Z,19.30
2018-01-21T08:02:21.918Z,19.20
2018-01-21T08:03:21.930Z,14.20
2018-01-21T08:04:21.920Z,16.10
2018-01-21T08:05:21.935Z,19.30
2018-01-21T08:06:21.937Z,21.50
2018-01-21T08:07:21.929Z,18.10
2018-01-21T08:08:21.952Z,20.30
2018-01-21T08:09:21.941Z,15.50
2018-01-21T08:10:21.944Z,18.80
2018-01-21T08:11:21.952Z,15.30
2018-01-21T08:12:21.958Z,19.60
2018-01-21T08:13:21.961Z,20.90
2018-01-21T08:14:21.968Z,13.50
2018-01-21T08:15:22.055Z,16.30
2018-01-21T08:16:21.982Z,15.90
2018-01-21T08:17:21.976Z,21.40
2018-01-21T08:18:21.974Z,19.00
2018-01-21T08:19:21.983Z,19.50
2018-01-21T08:20:21.992Z,17.80
2018-01-21T08:21:21.992Z,20.60
2018-01-21T08:22:22.002Z,17.00
2018-01-21T08:23:22.007Z,18.00
2018-01-21T08:24:22.013Z,21.20
2018-01-21T08:25:22.022Z,15.80
2018-01-21T08:26:22.024Z,17.80
2018-01-21T08:27:22.032Z,19.70
2018-01-21T08:28:22.072Z,17.80
2018-01-21T08:29:22.042Z,14.90
2018-01-21T08:30:22.048Z,17.60
2018-01-21T08:31:22.039Z,18.70
2018-01-21T08:32:22.045Z,19.40
2018-01-21T08:33:22.051Z,18.30
2018-01-21T08:34:22.054Z,18.90
2018-01-21T08:35:22.064Z,20.80
2018-01-21T08:36:22.063Z,19.40
2018-01-21T08:37:22.077Z,20.00
2018-01-21T08:38:22.071Z,21.10
2018-01-21T08:39:22.072Z,21.70
2018-01-21T08:40:22.086Z,21.70
2018-01-21T08:41:22.091Z,18.10
2018-01-21T08:42:22.093Z,17.80
2018-01-21T08:43:22.103Z,18.30
2018-01-21T08:44:22.217Z,18.80
2018-01-21T08:45:22.114Z,14.40
2018-01-21T08:46:22.114Z,18.80
2018-01-21T08:47:22.125Z,20.70
2018-01-21T08:48:22.122Z,17.70
2018-01-21T08:49:22.125Z,20.80
2018-01-21T08:50:22.175Z,17.70
2018-01-21T08:51:22.134Z,17.20
2018-01-21T08:52:22.135Z,18.80
2018-01-21T08:53:22.144Z,17.90
2018-01-21T08:54:22.143Z,19.20
2018-01-21T08:55:22.149Z,18.20
2018-01-21T08:56:22.258Z,17.90
2018-01-21T08:57:22.155Z,20.20
2018-01-21T08:58:22.157Z,18.60
2018-01-21T08:59:22.164Z,20.00
2018-01-21T09:00:22.172Z,20.10
2018-01-21T09:01:22.181Z,13.90
2018-01-21T09:02:22.187Z,16.20
2018-01-21T09:03:22.188Z,26.30
2018-01-21T09:04:22.197Z,19.20
2018-01-21T09:05:22.188Z,14.60
2018-01-21T09:06:22.202Z,17.50
2018-01-21T09:07:22.212Z,21.50
2018-01-21T09:08:22.221Z,16.50
2018-01-21T09:09:22.278Z,15.30
2018-01-21T09:10:22.219Z,14.70
2018-01-21T09:11:22.225Z,22.20
2018-01-21T09:12:22.226Z,18.70
2018-01-21T09:13:22.236Z,15.10
2018-01-21T09:14:22.242Z,19.90
2018-01-21T09:15:22.250Z,11.60
2018-01-21T09:16:22.254Z,17.20
2018-01-21T09:17:22.255Z,11.10
2018-01-21T09:18:22.257Z,9.80
2018-01-21T09:19:22.261Z,16.10
2018-01-21T09:20:22.288Z,14.20
2018-01-21T09:21:22.276Z,12.40
2018-01-21T09:22:22.291Z,12.10
2018-01-21T09:23:22.294Z,9.40
2018-01-21T09:24:22.300Z,15.90
2018-01-21T09:25:22.300Z,13.60
2018-01-21T09:26:22.303Z,12.30
2018-01-21T09:27:22.414Z,13.50
2018-01-21T09:28:22.313Z,12.10
2018-01-21T09:29:22.312Z,11.30
2018-01-21T09:30:22.313Z,11.60
2018-01-21T09:31:22.320Z,12.60
2018-01-21T09:32:22.337Z,12.00
2018-01-21T09:33:22.408Z,10.30
2018-01-21T09:34:22.341Z,10.60
2018-01-21T09:35:22.344Z,9.50
2018-01-21T09:36:22.359Z,18.30
2018-01-21T09:37:22.349Z,10.60
2018-01-21T09:38:22.386Z,12.60
2018-01-21T09:39:22.368Z,13.00
2018-01-21T09:40:22.366Z,13.60
2018-01-21T09:41:22.372Z,10.00
2018-01-21T09:42:22.396Z,10.80
2018-01-21T09:43:22.397Z,15.30
2018-01-21T09:44:22.466Z,14.40
2018-01-21T09:45:22.384Z,12.10
2018-01-21T09:46:22.404Z,12.70
2018-01-21T09:47:23.291Z,13.00
2018-01-21T09:48:22.404Z,11.40
2018-01-21T09:49:22.418Z,11.60
2018-01-21T09:50:22.457Z,11.50
2018-01-21T09:51:22.439Z,9.10
2018-01-21T09:52:22.434Z,13.90
2018-01-21T09:53:22.440Z,10.40
2018-01-21T09:54:22.487Z,14.10
2018-01-21T09:55:22.494Z,14.10
2018-01-21T09:56:22.472Z,11.60
2018-01-21T09:57:22.529Z,9.60
2018-01-21T09:58:22.488Z,12.90
2018-01-21T09:59:22.507Z,12.40
2018-01-21T10:00:23.286Z,13.70
2018-01-21T10:01:22.505Z,14.00
2018-01-21T10:02:22.479Z,9.70
2018-01-21T10:03:22.539Z,12.40
2018-01-21T10:04:22.504Z,12.00
2018-01-21T10:05:22.497Z,10.10
2018-01-21T10:06:22.551Z,17.10
2018-01-21T10:07:22.521Z,12.30
2018-01-21T10:08:22.540Z,10.20
2018-01-21T10:09:22.541Z,10.20
2018-01-21T10:10:23.296Z,11.20
2018-01-21T10:11:22.574Z,12.30
2018-01-21T10:12:22.543Z,10.20
2018-01-21T10:13:22.562Z,8.90
2018-01-21T10:14:22.555Z,8.30
2018-01-21T10:15:22.568Z,13.20
2018-01-21T10:16:22.568Z,10.20
2018-01-21T10:17:22.955Z,14.70
2018-01-21T10:18:22.630Z,10.60
2018-01-21T10:19:22.608Z,12.50
2018-01-21T10:20:22.593Z,11.60
2018-01-21T10:21:22.643Z,14.20
2018-01-21T10:22:22.601Z,15.50
2018-01-21T10:24:22.974Z,10.80
2018-01-21T10:25:22.621Z,9.30
2018-01-21T10:26:22.694Z,11.70
2018-01-21T10:27:22.643Z,11.90
2018-01-21T10:28:22.656Z,8.20
2018-01-21T10:29:22.655Z,11.20
2018-01-21T10:30:22.659Z,10.80
2018-01-21T10:31:22.662Z,7.80
2018-01-21T10:32:22.667Z,9.80
2018-01-21T10:33:22.701Z,9.20
2018-01-21T10:34:22.716Z,7.20
2018-01-21T10:35:22.686Z,10.60
2018-01-21T10:36:22.684Z,10.60
2018-01-21T10:37:22.701Z,5.40
2018-01-21T10:38:22.704Z,7.70
2018-01-21T10:39:22.747Z,8.50
2018-01-21T10:40:22.725Z,8.90
2018-01-21T10:41:22.719Z,7.10
2018-01-21T10:42:22.742Z,6.80
2018-01-21T10:43:22.744Z,7.70
2018-01-21T10:44:22.752Z,11.40
2018-01-21T10:45:22.789Z,9.50
2018-01-21T10:46:22.778Z,12.70
2018-01-21T10:47:24.536Z,10.40
2018-01-21T10:48:22.784Z,8.40
2018-01-21T10:49:22.774Z,7.80
2018-01-21T10:50:22.793Z,10.40
2018-01-21T10:51:22.875Z,6.60
2018-01-21T10:52:22.792Z,7.70
2018-01-21T10:53:22.862Z,6.70
2018-01-21T10:54:22.903Z,14.60
2018-01-21T10:55:22.814Z,7.90
2018-01-21T10:56:22.831Z,7.90
2018-01-21T10:57:22.854Z,10.10
2018-01-21T10:58:22.875Z,7.50
2018-01-21T10:59:22.858Z,8.00
2018-01-21T11:00:22.869Z,8.70
2018-01-21T11:01:22.863Z,9.50
2018-01-21T11:02:22.926Z,7.00
2018-01-21T11:03:22.871Z,7.10
2018-01-21T11:04:22.879Z,6.50
2018-01-21T11:05:22.891Z,9.20
2018-01-21T11:06:22.904Z,6.60
2018-01-21T11:07:22.897Z,9.20
2018-01-21T11:08:22.916Z,9.00
2018-01-21T11:09:22.925Z,7.70
2018-01-21T11:10:22.929Z,9.30
2018-01-21T11:11:22.924Z,5.60
2018-01-21T11:12:22.947Z,11.60
2018-01-21T11:13:22.941Z,10.80
2018-01-21T11:14:22.972Z,5.00
2018-01-21T11:15:22.950Z,7.30
2018-01-21T11:16:22.969Z,8.00
2018-01-21T11:17:22.975Z,11.00
2018-01-21T11:18:23.053Z,9.90
2018-01-21T11:19:22.994Z,7.70
2018-01-21T11:20:23.065Z,10.70
2018-01-21T11:21:23.013Z,6.20
2018-01-21T11:22:23.054Z,11.00
2018-01-21T11:23:23.018Z,8.10
2018-01-21T11:24:23.025Z,10.50
2018-01-21T11:25:23.025Z,4.50
2018-01-21T11:26:23.055Z,9.80
2018-01-21T11:27:23.267Z,8.20
2018-01-21T11:28:23.060Z,8.40
2018-01-21T11:29:23.044Z,7.60
2018-01-21T11:30:23.112Z,8.60
2018-01-21T11:31:23.426Z,5.70
2018-01-21T11:32:23.073Z,7.60
2018-01-21T11:33:23.199Z,7.90
2018-01-21T11:34:23.114Z,8.30
2018-01-21T11:35:23.097Z,6.30
2018-01-21T11:36:25.262Z,12.20
2018-01-21T11:37:23.104Z,7.50
2018-01-21T11:38:23.228Z,10.50
2018-01-21T11:39:23.105Z,6.90
2018-01-21T11:40:23.121Z,5.50
2018-01-21T11:41:23.122Z,9.20
2018-01-21T11:42:23.177Z,7.80
2018-01-21T11:43:23.139Z,7.10
2018-01-21T11:44:23.146Z,6.90
2018-01-21T11:45:23.142Z,9.40
2018-01-21T11:46:23.144Z,6.50
2018-01-21T11:47:23.166Z,6.70
2018-01-21T11:48:23.572Z,9.10
2018-01-21T11:49:23.169Z,5.90
2018-01-21T11:50:23.231Z,9.40
2018-01-21T11:51:23.190Z,5.90
2018-01-21T11:52:23.184Z,8.80
2018-01-21T11:53:23.230Z,8.80
2018-01-21T11:54:23.263Z,9.00
2018-01-21T11:55:23.248Z,8.90
2018-01-21T11:56:23.209Z,5.60
2018-01-21T11:57:23.336Z,8.20
2018-01-21T11:58:23.264Z,11.10
2018-01-21T11:59:23.240Z,7.40
2018-01-21T12:00:23.247Z,7.00
2018-01-21T12:01:23.257Z,7.80
2018-01-21T12:02:23.257Z,7.70
2018-01-21T12:03:23.257Z,10.30
2018-01-21T12:04:23.267Z,6.90
2018-01-21T12:05:23.281Z,6.90
2018-01-21T12:06:23.280Z,7.00
2018-01-21T12:07:23.293Z,9.00
2018-01-21T12:08:23.297Z,7.60
2018-01-21T12:09:23.310Z,8.00
2018-01-21T12:10:23.310Z,5.00
2018-01-21T12:11:23.318Z,5.50
2018-01-21T12:12:23.321Z,9.40
2018-01-21T12:13:23.327Z,9.50
2018-01-21T12:14:23.326Z,14.10
2018-01-21T12:15:23.335Z,12.50
2018-01-21T12:16:23.356Z,7.20
2018-01-21T12:17:23.519Z,11.20
2018-01-21T12:18:23.351Z,7.90
2018-01-21T12:19:23.376Z,6.60
2018-01-21T12:20:23.376Z,9.30
2018-01-21T12:21:23.380Z,9.10
2018-01-21T12:22:23.390Z,8.30
2018-01-21T12:23:23.412Z,8.00
2018-01-21T12:24:23.395Z,9.40
2018-01-21T12:25:23.397Z,7.10
2018-01-21T12:26:23.410Z,10.60
2018-01-21T12:27:23.425Z,6.90
2018-01-21T12:28:23.456Z,9.90
2018-01-21T12:29:23.668Z,4.40
2018-01-21T12:30:23.487Z,6.30
2018-01-21T12:31:23.458Z,8.80
2018-01-21T12:32:23.463Z,8.90
2018-01-21T12:33:23.464Z,9.10
2018-01-21T12:34:23.479Z,8.90
2018-01-21T12:35:23.501Z,11.00
2018-01-21T12:36:23.618Z,10.10
2018-01-21T12:37:23.530Z,13.40
2018-01-21T12:38:23.550Z,6.50
2018-01-21T12:39:23.502Z,6.30
2018-01-21T12:40:23.542Z,7.00
2018-01-21T12:41:23.591Z,8.40
2018-01-21T12:42:23.554Z,7.30
2018-01-21T12:43:23.553Z,10.40
2018-01-21T12:44:23.533Z,8.50
2018-01-21T12:45:23.542Z,7.40
2018-01-21T12:46:23.547Z,8.40
2018-01-21T12:47:23.545Z,7.70
2018-01-21T12:48:23.564Z,8.80
2018-01-21T12:49:23.573Z,8.60
2018-01-21T12:50:23.565Z,6.60
2018-01-21T12:51:23.578Z,9.20
2018-01-21T12:52:23.583Z,8.60
2018-01-21T12:53:23.743Z,5.80
2018-01-21T12:54:23.589Z,7.90
2018-01-21T12:55:23.627Z,6.90
2018-01-21T12:56:23.641Z,8.90
2018-01-21T12:57:23.656Z,5.70